Castello d'Empuries, Spain
Current Conditions -  °F | °C
As of 2:30 AM on Saturday 20 Dec 2014 (Local Time) from LEGE Reporting Station
Few Clouds Few Clouds  
Wind Chill: 45°   Ceiling: Unl
Heat Index: 45°   Visibility: 6mi
Dew Point: 45°   Wind: 2mph
Humidity: 100%   Direction: 30°NNE
Pressure: 30.39"   Gusts: NA
Location:  42.26°N, 3.07°E
Report Text: LEGE 200130Z 03002KT 9000 FEW028 07/07 Q1029
Loading
Personal Weather Stations






























Interactive Weather Map New forecast layout! Learn more

10-Day Weather Forecast

Advertisements
Track Severe Weather on mobile